KCCR

Buchanan Field Airport

Concord, California, USA
METAR KCCR 201453Z AUTO 16003KT 10SM CLR 00/M03 A3024 RMK AO2 SLP224 T00001033 52015
Observed Flight Rules
Feb-20 @ 14:53 UTC (5 hours ago) Visual Flight Rules
Wind Visibility Clouds
160° at 3 knots 10 miles
  • Clear skies
Temperatures Readings
Current 0°C / 32°F
Dewpoint -3°C / 27°F
Humidity 80%
Altimeter 30.24" Hg
Pressure 1022.4 hPa
Elevation 11
METAR KCCR 201453Z AUTO 16003KT 10SM CLR 00/M03 A3024 RMK AO2 SLP224 T00001033 52015
Observed Flight Rules
Feb-20 @ 14:53 UTC
(5 hours ago)
VFR
Wind Visibility
160° at 3 knots 10 miles
Clouds
  • Clear skies
Temperature Dewpoint
0°C / 32°F -3°C / 27°F
Humidity Altimeter Pressure
80% 30.24" Hg 1022.4 hPa